createdAt,value
2022-08-30T00:02:57.521Z,100254.50
2022-08-30T00:06:01.055Z,100255.78
2022-08-30T00:09:04.026Z,100250.67
2022-08-30T00:12:08.918Z,100252.47
2022-08-30T00:15:13.552Z,100254.27
2022-08-30T00:18:18.570Z,100246.21
2022-08-30T00:21:21.972Z,100243.95
2022-08-30T00:24:25.335Z,100247.48
2022-08-30T00:27:28.942Z,100244.81
2022-08-30T00:30:31.997Z,100239.45
2022-08-30T00:33:35.273Z,100238.58
2022-08-30T00:36:38.533Z,100239.77
2022-08-30T00:39:41.941Z,100238.46
2022-08-30T00:42:45.626Z,100242.70
2022-08-30T00:45:53.752Z,100242.20
2022-08-30T00:48:57.706Z,100241.19
2022-08-30T00:52:03.264Z,100235.73
2022-08-30T00:55:09.569Z,100231.44
2022-08-30T00:58:21.433Z,100230.83
2022-08-30T01:01:25.793Z,100223.21
2022-08-30T01:04:29.766Z,100224.15
2022-08-30T01:07:35.026Z,100225.80
2022-08-30T01:10:39.083Z,100225.83
2022-08-30T01:13:44.406Z,100229.20
2022-08-30T01:16:47.795Z,100229.61
2022-08-30T01:19:57.688Z,100227.15
2022-08-30T01:23:12.650Z,100221.73
2022-08-30T01:26:21.766Z,100219.42
2022-08-30T01:29:26.350Z,100215.39
2022-08-30T01:32:30.187Z,100213.98
2022-08-30T01:35:48.101Z,100214.84
2022-08-30T01:38:57.452Z,100215.55
2022-08-30T01:42:01.680Z,100218.02
2022-08-30T01:45:06.250Z,100224.58
2022-08-30T01:48:13.109Z,100223.91
2022-08-30T01:51:16.777Z,100222.11
2022-08-30T01:54:19.951Z,100226.55
2022-08-30T01:57:27.332Z,100229.63
2022-08-30T02:00:31.021Z,100238.50
2022-08-30T02:03:35.638Z,100238.99
2022-08-30T02:06:41.966Z,100236.48
2022-08-30T02:09:46.146Z,100232.42
2022-08-30T02:12:49.452Z,100232.70
2022-08-30T02:15:53.123Z,100230.48
2022-08-30T02:18:57.545Z,100232.77
2022-08-30T02:22:00.618Z,100232.95
2022-08-30T02:25:07.240Z,100230.34
2022-08-30T02:28:15.976Z,100227.67
2022-08-30T02:31:23.015Z,100230.48
2022-08-30T02:34:26.221Z,100233.63
2022-08-30T02:37:29.399Z,100230.45
2022-08-30T02:40:32.933Z,100231.77
2022-08-30T02:43:35.912Z,100231.46
2022-08-30T02:46:40.108Z,100237.14
2022-08-30T02:49:43.028Z,100240.40
2022-08-30T02:52:48.257Z,100244.17
2022-08-30T02:55:51.531Z,100245.15
2022-08-30T02:58:54.813Z,100246.76
2022-08-30T03:01:57.780Z,100247.71
2022-08-30T03:05:04.406Z,100244.09
2022-08-30T03:08:08.533Z,100246.67
2022-08-30T03:11:13.891Z,100250.25
2022-08-30T03:14:17.147Z,100255.14
2022-08-30T03:17:20.520Z,100261.23
2022-08-30T03:20:24.419Z,100262.60
2022-08-30T03:23:27.795Z,100260.55
2022-08-30T03:26:31.861Z,100261.61
2022-08-30T03:29:39.557Z,100262.48
2022-08-30T03:32:43.173Z,100264.48
2022-08-30T03:35:46.425Z,100266.15
2022-08-30T03:38:49.819Z,100270.91
2022-08-30T03:41:54.950Z,100269.98
2022-08-30T03:44:58.138Z,100274.60
2022-08-30T03:48:05.692Z,100273.59
2022-08-30T03:51:08.664Z,100272.77
2022-08-30T03:54:11.640Z,100274.48
2022-08-30T03:57:20.101Z,100273.39
2022-08-30T04:00:27.612Z,100278.64
2022-08-30T04:03:30.584Z,100281.02
2022-08-30T04:06:34.171Z,100281.23
2022-08-30T04:09:37.451Z,100277.88
2022-08-30T04:12:40.963Z,100278.30
2022-08-30T04:15:47.222Z,100279.86
2022-08-30T04:18:50.562Z,100290.30
2022-08-30T04:21:54.832Z,100288.77
2022-08-30T04:24:58.463Z,100288.56
2022-08-30T04:28:02.551Z,100290.17
2022-08-30T04:31:11.773Z,100289.16
2022-08-30T04:34:16.996Z,100292.81
2022-08-30T04:37:20.377Z,100297.82
2022-08-30T04:40:24.082Z,100300.36
2022-08-30T04:43:27.542Z,100303.98
2022-08-30T04:46:30.932Z,100304.92
2022-08-30T04:49:34.308Z,100306.85
2022-08-30T04:52:37.688Z,100308.08
2022-08-30T04:55:42.016Z,100301.89
2022-08-30T04:58:46.965Z,100305.78
2022-08-30T05:01:50.182Z,100305.73
2022-08-30T05:05:11.884Z,100307.20
2022-08-30T05:08:24.722Z,100310.94
2022-08-30T05:11:28.990Z,100311.98
2022-08-30T05:14:32.159Z,100306.23
2022-08-30T05:17:38.120Z,100309.11
2022-08-30T05:20:41.277Z,100310.64
2022-08-30T05:23:45.067Z,100312.79
2022-08-30T05:29:56.128Z,100318.30
2022-08-30T05:32:59.920Z,100316.20
2022-08-30T05:36:06.982Z,100321.73
2022-08-30T05:39:10.904Z,100325.85
2022-08-30T05:42:16.903Z,100322.70
2022-08-30T05:45:20.644Z,100320.70
2022-08-30T05:48:23.897Z,100323.17
2022-08-30T05:51:28.971Z,100327.27
2022-08-30T05:54:32.286Z,100331.25
2022-08-30T05:57:36.955Z,100332.11
2022-08-30T06:00:40.592Z,100335.66
2022-08-30T06:03:43.560Z,100331.64
2022-08-30T06:06:46.839Z,100330.27
2022-08-30T06:09:50.125Z,100329.27
2022-08-30T06:12:56.261Z,100334.91
2022-08-30T06:15:59.416Z,100337.16
2022-08-30T06:19:02.773Z,100333.55
2022-08-30T06:22:05.908Z,100331.34
2022-08-30T06:25:11.047Z,100331.33
2022-08-30T06:28:14.296Z,100326.22
2022-08-30T06:31:19.146Z,100328.71
2022-08-30T06:34:22.593Z,100332.13
2022-08-30T06:37:29.630Z,100334.27
2022-08-30T06:40:34.142Z,100333.99
2022-08-30T06:43:37.656Z,100333.61
2022-08-30T06:46:40.961Z,100329.00
2022-08-30T06:49:44.522Z,100326.70
2022-08-30T06:52:47.593Z,100325.65
2022-08-30T06:56:05.383Z,100330.64
2022-08-30T06:59:08.415Z,100336.67
2022-08-30T07:02:11.514Z,100337.27
2022-08-30T07:05:18.676Z,100339.11
2022-08-30T07:08:26.088Z,100348.83
2022-08-30T07:11:35.932Z,100352.92
2022-08-30T07:14:39.587Z,100354.45
2022-08-30T07:18:01.456Z,100355.54
2022-08-30T07:21:15.035Z,100352.76
2022-08-30T07:24:18.777Z,100357.98
2022-08-30T07:27:21.889Z,100359.51
2022-08-30T07:30:25.890Z,100364.36
2022-08-30T07:33:28.857Z,100368.41
2022-08-30T07:36:32.447Z,100370.34
2022-08-30T07:39:39.741Z,100371.29
2022-08-30T07:42:48.005Z,100378.70
2022-08-30T07:45:50.979Z,100381.97
2022-08-30T07:48:55.434Z,100385.25
2022-08-30T07:51:58.499Z,100383.59
2022-08-30T07:55:02.255Z,100385.59
2022-08-30T07:58:05.384Z,100387.16
2022-08-30T08:01:10.502Z,100390.50
2022-08-30T08:04:13.623Z,100391.52
2022-08-30T08:07:16.695Z,100394.42
2022-08-30T08:10:19.879Z,100396.81
2022-08-30T08:13:23.851Z,100400.23
2022-08-30T08:16:34.237Z,100404.69
2022-08-30T08:19:37.187Z,100405.03
2022-08-30T08:22:45.580Z,100411.98
2022-08-30T08:25:50.802Z,100411.29
2022-08-30T08:28:54.698Z,100412.11
2022-08-30T08:31:58.383Z,100418.91
2022-08-30T08:35:01.764Z,100420.88
2022-08-30T08:38:05.452Z,100425.73
2022-08-30T08:41:31.659Z,100426.71
2022-08-30T08:44:59.290Z,100424.54
2022-08-30T08:48:12.936Z,100426.67
2022-08-30T08:51:39.213Z,100428.11
2022-08-30T08:54:52.891Z,100425.17
2022-08-30T08:57:58.252Z,100425.33
2022-08-30T09:01:01.239Z,100421.94
2022-08-30T09:04:12.280Z,100417.40
2022-08-30T09:07:22.722Z,100413.11
2022-08-30T09:10:47.019Z,100415.30
2022-08-30T09:13:51.890Z,100409.67
2022-08-30T09:17:02.586Z,100405.05
2022-08-30T09:20:06.642Z,100407.98
2022-08-30T09:23:15.756Z,100407.04
2022-08-30T09:26:33.533Z,100408.13
2022-08-30T09:29:36.436Z,100414.02
2022-08-30T09:32:42.273Z,100414.67
2022-08-30T09:35:48.495Z,100407.58
2022-08-30T09:39:04.946Z,100406.61
2022-08-30T09:42:20.662Z,100401.20
2022-08-30T09:45:36.297Z,100401.80
2022-08-30T09:48:44.249Z,100402.61
2022-08-30T09:52:02.628Z,100403.17
2022-08-30T09:55:33.134Z,100404.79
2022-08-30T09:58:51.409Z,100406.93
2022-08-30T10:02:31.782Z,100402.89
2022-08-30T10:05:47.441Z,100403.57
2022-08-30T10:09:16.710Z,100400.64
2022-08-30T10:12:54.520Z,100401.92
2022-08-30T10:16:29.790Z,100397.20
2022-08-30T10:19:51.997Z,100392.84
2022-08-30T10:23:17.338Z,100390.40
2022-08-30T10:26:30.019Z,100389.25
2022-08-30T10:29:47.372Z,100388.29
2022-08-30T10:33:12.521Z,100391.64
2022-08-30T10:36:27.909Z,100388.95
2022-08-30T10:39:39.214Z,100388.65
2022-08-30T10:42:42.241Z,100386.75
2022-08-30T10:45:50.655Z,100382.73
2022-08-30T10:48:56.746Z,100381.30
2022-08-30T10:52:12.649Z,100377.79
2022-08-30T10:55:24.628Z,100377.98
2022-08-30T10:58:28.932Z,100379.44
2022-08-30T11:01:35.308Z,100383.16
2022-08-30T11:04:38.468Z,100381.68
2022-08-30T11:08:24.111Z,100372.91
2022-08-30T11:11:40.720Z,100379.90
2022-08-30T11:14:46.368Z,100380.23
2022-08-30T11:18:10.791Z,100374.32
2022-08-30T11:21:32.649Z,100372.62
2022-08-30T11:24:58.585Z,100366.55
2022-08-30T11:28:01.557Z,100356.38
2022-08-30T11:31:23.730Z,100358.84
2022-08-30T11:34:45.685Z,100356.03
2022-08-30T11:37:50.541Z,100355.42
2022-08-30T11:41:30.037Z,100352.21
2022-08-30T11:44:33.270Z,100351.83
2022-08-30T11:47:47.908Z,100353.75
2022-08-30T11:51:14.724Z,100347.98
2022-08-30T11:54:53.375Z,100343.71
2022-08-30T11:58:13.849Z,100338.75
2022-08-30T12:01:49.721Z,100339.64
2022-08-30T12:04:56.465Z,100339.02
2022-08-30T12:08:02.374Z,100338.23
2022-08-30T12:11:19.242Z,100336.08
2022-08-30T12:14:53.769Z,100334.05
2022-08-30T12:18:19.941Z,100326.63
2022-08-30T12:21:28.091Z,100322.00
2022-08-30T12:24:40.351Z,100320.80
2022-08-30T12:27:43.436Z,100320.75
2022-08-30T12:30:47.010Z,100324.13
2022-08-30T12:34:00.751Z,100318.41
2022-08-30T12:37:08.711Z,100317.84
2022-08-30T12:40:16.557Z,100317.98
2022-08-30T12:43:39.625Z,100314.45
2022-08-30T12:46:48.534Z,100314.35
2022-08-30T12:49:54.379Z,100309.04
2022-08-30T12:53:11.703Z,100303.11
2022-08-30T12:56:30.416Z,100298.47
2022-08-30T12:59:56.779Z,100298.36
2022-08-30T13:03:38.057Z,100296.50
2022-08-30T13:06:52.486Z,100297.65
2022-08-30T13:10:05.460Z,100293.46
2022-08-30T13:13:08.470Z,100292.55
2022-08-30T13:16:26.388Z,100292.36
2022-08-30T13:19:42.454Z,100290.16
2022-08-30T13:23:06.668Z,100282.45
2022-08-30T13:26:12.241Z,100277.05
2022-08-30T13:29:18.667Z,100285.05
2022-08-30T13:32:22.995Z,100282.28
2022-08-30T13:35:26.070Z,100279.83
2022-08-30T13:38:29.044Z,100278.94
2022-08-30T13:41:33.758Z,100275.95
2022-08-30T13:44:37.543Z,100276.83
2022-08-30T13:47:47.080Z,100277.23
2022-08-30T13:50:50.148Z,100274.55
2022-08-30T13:53:53.715Z,100270.70
2022-08-30T13:57:00.288Z,100269.98
2022-08-30T14:00:10.399Z,100268.95
2022-08-30T14:03:16.519Z,100267.45
2022-08-30T14:06:32.651Z,100268.91
2022-08-30T14:09:37.548Z,100269.55
2022-08-30T14:13:02.602Z,100270.81
2022-08-30T14:19:29.935Z,100268.27
2022-08-30T14:22:33.336Z,100269.63
2022-08-30T14:25:36.313Z,100272.89
2022-08-30T14:28:41.022Z,100270.19
2022-08-30T14:31:54.893Z,100274.21
2022-08-30T14:35:00.619Z,100269.71
2022-08-30T14:38:04.980Z,100268.63
2022-08-30T14:41:10.236Z,100269.13
2022-08-30T14:44:15.423Z,100265.71
2022-08-30T14:47:18.404Z,100263.42
2022-08-30T14:50:21.745Z,100264.98
2022-08-30T14:53:26.717Z,100267.45
2022-08-30T14:56:29.918Z,100266.92
2022-08-30T14:59:34.106Z,100264.40
2022-08-30T15:02:37.947Z,100266.27
2022-08-30T15:05:41.372Z,100269.16
2022-08-30T15:08:47.855Z,100267.10
2022-08-30T15:11:53.645Z,100265.43
2022-08-30T15:14:57.952Z,100266.33
2022-08-30T15:18:01.145Z,100273.25
2022-08-30T15:21:04.962Z,100266.88
2022-08-30T15:24:11.626Z,100267.45
2022-08-30T15:27:14.553Z,100269.31
2022-08-30T15:30:19.681Z,100271.89
2022-08-30T15:33:24.406Z,100271.60
2022-08-30T15:36:29.983Z,100270.61
2022-08-30T15:39:33.496Z,100264.55
2022-08-30T15:42:36.781Z,100268.53
2022-08-30T15:45:39.928Z,100270.99
2022-08-30T15:48:46.307Z,100267.71
2022-08-30T15:51:53.951Z,100271.64
2022-08-30T15:54:58.041Z,100267.64
2022-08-30T15:58:01.046Z,100267.69
2022-08-30T16:01:05.939Z,100265.45
2022-08-30T16:04:09.138Z,100262.31
2022-08-30T16:07:14.368Z,100262.70
2022-08-30T16:10:17.647Z,100260.90
2022-08-30T16:13:21.943Z,100256.95
2022-08-30T16:16:26.719Z,100256.92
2022-08-30T16:19:30.393Z,100259.17
2022-08-30T16:22:33.629Z,100262.22
2022-08-30T16:25:41.285Z,100261.73
2022-08-30T16:28:46.120Z,100263.33
2022-08-30T16:31:50.094Z,100262.42
2022-08-30T16:34:53.497Z,100262.50
2022-08-30T16:37:56.680Z,100261.67
2022-08-30T16:41:04.377Z,100266.77
2022-08-30T16:44:07.426Z,100266.07
2022-08-30T16:47:14.239Z,100265.82
2022-08-30T16:50:18.895Z,100262.52
2022-08-30T16:53:21.868Z,100263.65
2022-08-30T16:56:27.376Z,100260.08
2022-08-30T16:59:30.574Z,100259.23
2022-08-30T17:02:34.521Z,100261.51
2022-08-30T17:05:37.751Z,100258.77
2022-08-30T17:08:41.825Z,100258.63
2022-08-30T17:11:46.765Z,100258.97
2022-08-30T17:14:50.451Z,100262.06
2022-08-30T17:17:55.060Z,100262.16
2022-08-30T17:20:58.852Z,100260.14
2022-08-30T17:24:03.624Z,100263.60
2022-08-30T17:27:07.456Z,100262.20
2022-08-30T17:30:12.069Z,100265.86
2022-08-30T17:33:15.412Z,100275.63
2022-08-30T17:36:21.182Z,100277.27
2022-08-30T17:39:24.672Z,100278.91
2022-08-30T17:42:29.722Z,100279.98
2022-08-30T17:45:33.071Z,100282.10
2022-08-30T17:48:37.083Z,100282.61
2022-08-30T17:51:42.987Z,100285.32
2022-08-30T17:54:46.486Z,100288.91
2022-08-30T17:57:50.942Z,100291.84
2022-08-30T18:01:05.412Z,100297.13
2022-08-30T18:04:19.557Z,100301.16
2022-08-30T18:07:24.191Z,100303.50
2022-08-30T18:10:32.969Z,100308.08
2022-08-30T18:13:37.396Z,100310.48
2022-08-30T18:16:49.750Z,100317.59
2022-08-30T18:20:07.332Z,100319.20
2022-08-30T18:23:11.201Z,100321.82
2022-08-30T18:26:15.879Z,100321.83
2022-08-30T18:29:26.301Z,100325.07
2022-08-30T18:32:36.232Z,100327.64
2022-08-30T18:35:47.550Z,100328.38
2022-08-30T18:38:51.485Z,100331.96
2022-08-30T18:41:56.926Z,100335.20
2022-08-30T18:45:14.665Z,100335.68
2022-08-30T18:48:19.640Z,100340.68
2022-08-30T18:51:23.313Z,100342.99
2022-08-30T18:54:26.947Z,100347.16
2022-08-30T18:57:31.116Z,100342.05
2022-08-30T19:00:35.587Z,100342.05
2022-08-30T19:03:40.762Z,100342.84
2022-08-30T19:06:45.575Z,100339.60
2022-08-30T19:09:49.265Z,100337.80
2022-08-30T19:12:55.004Z,100336.41
2022-08-30T19:15:58.177Z,100335.96
2022-08-30T19:19:01.458Z,100334.77
2022-08-30T19:22:06.216Z,100331.20
2022-08-30T19:25:11.901Z,100332.71
2022-08-30T19:28:15.079Z,100339.57
2022-08-30T19:31:17.955Z,100339.80
2022-08-30T19:34:22.100Z,100342.14
2022-08-30T19:37:25.132Z,100342.73
2022-08-30T19:40:29.051Z,100347.01
2022-08-30T19:43:32.500Z,100349.98
2022-08-30T19:46:35.539Z,100345.06
2022-08-30T19:49:38.750Z,100348.22
2022-08-30T19:52:42.746Z,100348.63
2022-08-30T19:55:45.728Z,100350.08
2022-08-30T19:58:48.694Z,100350.05
2022-08-30T20:01:51.845Z,100345.53
2022-08-30T20:04:55.266Z,100347.30
2022-08-30T20:07:58.894Z,100346.83
2022-08-30T20:11:01.887Z,100344.81
2022-08-30T20:14:05.818Z,100343.71
2022-08-30T20:17:11.775Z,100341.61
2022-08-30T20:20:18.177Z,100344.30
2022-08-30T20:23:25.473Z,100345.02
2022-08-30T20:26:33.790Z,100340.24
2022-08-30T20:29:38.296Z,100343.43
2022-08-30T20:32:46.954Z,100337.19
2022-08-30T20:35:51.797Z,100337.11
2022-08-30T20:38:54.817Z,100334.64
2022-08-30T20:41:59.145Z,100334.90
2022-08-30T20:45:06.032Z,100333.48
2022-08-30T20:48:08.902Z,100336.96
2022-08-30T20:51:15.604Z,100333.77
2022-08-30T20:54:18.634Z,100338.25
2022-08-30T20:57:24.492Z,100337.38
2022-08-30T21:00:28.053Z,100341.73
2022-08-30T21:03:32.803Z,100339.33
2022-08-30T21:06:37.779Z,100346.96
2022-08-30T21:09:40.684Z,100347.63
2022-08-30T21:12:43.574Z,100353.71
2022-08-30T21:15:50.626Z,100357.83
2022-08-30T21:18:54.584Z,100357.45
2022-08-30T21:21:57.493Z,100361.61
2022-08-30T21:25:00.381Z,100365.52
2022-08-30T21:28:07.211Z,100364.57
2022-08-30T21:31:13.724Z,100368.01
2022-08-30T21:34:17.907Z,100365.66
2022-08-30T21:37:22.071Z,100364.58
2022-08-30T21:40:25.216Z,100365.20
2022-08-30T21:43:28.170Z,100364.13
2022-08-30T21:46:32.596Z,100369.08
2022-08-30T21:49:36.648Z,100367.15
2022-08-30T21:52:39.498Z,100371.17
2022-08-30T21:55:43.808Z,100370.95
2022-08-30T21:58:47.319Z,100370.56
2022-08-30T22:01:50.426Z,100372.01
2022-08-30T22:04:53.700Z,100370.96
2022-08-30T22:07:56.983Z,100374.83
2022-08-30T22:11:00.464Z,100370.65
2022-08-30T22:14:04.874Z,100368.23
2022-08-30T22:17:08.211Z,100367.38
2022-08-30T22:20:18.505Z,100369.81
2022-08-30T22:23:23.113Z,100362.41
2022-08-30T22:26:27.192Z,100357.71
2022-08-30T22:29:30.789Z,100360.14
2022-08-30T22:32:34.266Z,100359.20
2022-08-30T22:35:37.859Z,100363.05
2022-08-30T22:38:41.339Z,100355.04
2022-08-30T22:41:47.517Z,100352.73
2022-08-30T22:44:52.665Z,100351.70
2022-08-30T22:47:55.984Z,100350.55
2022-08-30T22:50:59.057Z,100350.74
2022-08-30T22:54:03.059Z,100351.38
2022-08-30T22:57:06.438Z,100353.52
2022-08-30T23:00:15.581Z,100354.41
2022-08-30T23:03:19.357Z,100354.86
2022-08-30T23:06:23.674Z,100358.70
2022-08-30T23:09:31.531Z,100357.48
2022-08-30T23:12:37.251Z,100361.74
2022-08-30T23:15:40.443Z,100361.19
2022-08-30T23:18:44.535Z,100358.27
2022-08-30T23:21:47.510Z,100358.85
2022-08-30T23:25:15.942Z,100353.56
2022-08-30T23:28:40.030Z,100357.59
2022-08-30T23:32:01.847Z,100359.47
2022-08-30T23:35:29.380Z,100358.55
2022-08-30T23:38:51.871Z,100361.55
2022-08-30T23:42:13.362Z,100365.65
2022-08-30T23:45:35.081Z,100359.56
2022-08-30T23:48:57.167Z,100357.30
2022-08-30T23:52:19.178Z,100353.98
2022-08-30T23:55:41.180Z,100346.09
2022-08-30T23:59:02.985Z,100345.52
